• Join FlightAware (Why Join?)
  • Login
  • US Flag 
01:12PM EDT


 

Airport Tracker/Info


-or-


 

Live Flight TrackerFlight Track Log ✈ JBU464 ✈ 24-May-2013 ✈ KRSW - KBOS

Flight Track Log - Related Links

Times and Time Zones

All times are in EDT time to prevent confusion due to time zone crossing. See the JBU464 flight status page for this flight to view local times or setup timezone preferences in your user account.

Time Position Orientation Groundspeed Altitude Reporting Facility
EDT Latitude Longitude Course Direction KTS MPH feet Rate Location/Type
07:33AM 26.6928 -81.7181 344° North 273 314 6,400  Level Miami Center
07:34AM 26.7697 -81.7261 355° North 280 322 9,200 2,220 Climbing Miami Center
07:35AM 27.0313 -81.7392 340° North  Level FlightAware Approximate
07:35AM 26.8531 -81.7317 357° North 286 329 10,900  Level Miami Center
07:36AM 27.1500 -81.7833 343° North  Level FlightAware Approximate
07:36AM 26.9531 -81.7406 355° North 320 368 11,800  Level Miami Center
07:37AM 27.2695 -81.8245 340° North  Level FlightAware Approximate
07:37AM 27.0650 -81.7594 351° North 366 421 13,500  Level Miami Center
07:38AM 27.3883 -81.8683 344° North  Level FlightAware Approximate
07:38AM 27.1744 -81.7967 343° North 395 455 16,400  Level Miami Center
07:39AM 27.5082 -81.9083 344° North  Level FlightAware Approximate
07:39AM 27.2939 -81.7808 North 390 449 18,100  Level Miami Center
07:40AM 27.4100 -81.7411 17° North 415 478 19,200 1,140 Climbing Miami Center
07:41AM 27.5306 -81.6972 18° North 421 484 20,400 1,200 Climbing Miami Center
07:42AM 27.6403 -81.6572 18° North 448 516 21,600 1,080 Climbing Miami Center
07:43AM 27.7669 -81.6133 17° North 465 535 22,600 960 Climbing Miami Center
07:44AM 27.8936 -81.5742 15° North 473 544 23,600 840 Climbing Miami Center
07:45AM 28.0272 -81.5725 North 473 544 24,300 900 Climbing Miami Center
07:46AM 28.1586 -81.5711 North 473 544 25,500 1,200 Climbing Miami Center
07:50AM 28.6856 -81.5556 North 456 525 30,300 1,200 Climbing Jacksonville Center
07:51AM 28.8108 -81.5539 North 456 525 31,500 1,260 Climbing Jacksonville Center
07:52AM 28.9339 -81.5522 North 456 525 32,900 1,440 Climbing Jacksonville Center
07:53AM 29.0569 -81.5481 North 446 513 34,400 1,020 Climbing Jacksonville Center
07:54AM 29.1781 -81.5442 North 434 499 35,000 300 Climbing Jacksonville Center
07:55AM 29.3033 -81.5422 North 405 466 35,000  Level Jacksonville Center
07:56AM 29.4242 -81.5383 North 405 466 35,000  Level Jacksonville Center
07:57AM 29.5433 -81.5342 North 421 484 35,000  Level Jacksonville Center
07:58AM 29.6600 -81.5303 North 421 484 35,000  Level Jacksonville Center
07:59AM 29.7792 -81.5286 North 421 484 35,000  Level Jacksonville Center
08:00AM 29.9000 -81.5244 North 421 484 35,000  Level Jacksonville Center
08:01AM 30.0169 -81.5206 North 421 484 35,000  Level Jacksonville Center
08:02AM 30.1339 -81.5164 North 421 484 35,000  Level Jacksonville Center
08:03AM 30.2425 -81.5147 North 426 490 35,000  Level Jacksonville Center
08:04AM 30.3633 -81.5083 North 426 490 35,000  Level Jacksonville Center
08:05AM 30.4803 -81.4994 North 426 490 35,000  Level Jacksonville Center
08:06AM 30.6011 -81.4903 North 421 484 35,000  Level Jacksonville Center
08:07AM 30.7222 -81.4789 North 421 484 35,000  Level Jacksonville Center
08:08AM 30.8411 -81.4722 North 421 484 35,000  Level Jacksonville Center
08:09AM 30.9622 -81.4631 North 421 484 35,000  Level Jacksonville Center
08:10AM 31.0831 -81.4517 North 426 490 35,000  Level Jacksonville Center
08:11AM 31.2042 -81.4425 North 426 490 35,000  Level Jacksonville Center
08:12AM 31.3250 -81.4189 North 431 496 35,000  Level Jacksonville Center
08:13AM 31.4347 -81.3367 33° Northeast 430 495 35,000  Level Jacksonville Center
08:14AM 31.5525 -81.2422 34° Northeast 464 534 35,000  Level Jacksonville Center
08:15AM 31.6517 -81.1647 34° Northeast 471 542 35,000  Level Jacksonville Center
08:16AM 31.7672 -81.0697 35° Northeast 464 534 35,000  Level Jacksonville Center
08:17AM 31.8808 -80.9842 33° Northeast 469 540 35,000  Level Jacksonville Center
08:18AM 31.9797 -80.9064 34° Northeast 474 545 35,000  Level Jacksonville Center
08:19AM 32.0994 -80.8106 34° Northeast 474 545 35,000 -60 Level Jacksonville Center
08:20AM 32.1981 -80.7297 35° Northeast 474 545 34,900 -60 Descending Jacksonville Center
08:21AM 32.3094 -80.6411 34° Northeast 474 545 34,900  Level Jacksonville Center
08:22AM 32.4206 -80.5522 34° Northeast 474 545 35,000  Climbing Jacksonville Center
08:23AM 32.5314 -80.4631 34° Northeast 474 545 34,900 -60 Descending Jacksonville Center
08:24AM 32.6403 -80.3739 35° Northeast 474 545 34,900  Level Jacksonville Center
08:25AM 32.7472 -80.2869 34° Northeast 474 545 34,900  Level Jacksonville Center
08:26AM 32.8581 -80.1947 35° Northeast 474 545 34,900  Level Jacksonville Center
08:27AM 32.9667 -80.1022 36° Northeast 484 557 34,900  Level Jacksonville Center
08:28AM 33.0814 -80.0119 33° Northeast 484 557 35,000  Climbing Jacksonville Center
08:29AM 33.1881 -79.9267 34° Northeast 479 551 35,000  Level Jacksonville Center
08:30AM 33.3006 -79.8333 35° Northeast 479 551 35,000  Level Jacksonville Center
08:31AM 33.4089 -79.7450 34° Northeast 479 551 35,000 -60 Level Jacksonville Center
08:32AM 33.5153 -79.6589 34° Northeast 474 545 34,900  Descending Jacksonville Center
08:33AM 33.6214 -79.5678 36° Northeast 474 545 35,000  Climbing Jacksonville Center
08:34AM 33.7275 -79.4764 36° Northeast 469 540 35,000  Level Jacksonville Center
08:35AM 33.8317 -79.3925 34° Northeast 469 540 35,000  Level Jacksonville Center
08:38AM 34.0675 -79.1967 35° Northeast 465 535 35,000  Level Washington Center
08:39AM 34.1789 -79.1011 35° Northeast 470 541 35,000  Level Washington Center
08:40AM 34.2878 -79.0103 35° Northeast 482 555 35,000 -60 Level Washington Center
08:41AM 34.4028 -78.9269 31° Northeast 482 555 34,900 -60 Descending Washington Center
08:42AM 34.5158 -78.8408 32° Northeast 477 549 34,900  Level Washington Center
08:43AM 34.6267 -78.7544 33° Northeast 477 549 35,000  Climbing Washington Center
08:44AM 34.7394 -78.6653 33° Northeast 477 549 35,000  Level Washington Center
08:45AM 34.8522 -78.5786 32° Northeast 477 549 35,000  Level Washington Center
08:46AM 34.9650 -78.4914 32° Northeast 477 549 35,000 -60 Level Washington Center
08:47AM 35.0775 -78.4067 32° Northeast 472 543 34,900  Descending Washington Center
08:48AM 35.1925 -78.3139 33° Northeast 478 550 35,000  Climbing Washington Center
08:49AM 35.3114 -78.2264 31° Northeast 483 556 35,000  Level Washington Center
08:50AM 35.4258 -78.1358 33° Northeast 488 562 35,000  Level Washington Center
08:51AM 35.5406 -78.0450 33° Northeast 488 562 35,000  Level Washington Center
08:52AM 35.6569 -77.9567 32° Northeast 488 562 35,000  Level Washington Center
08:53AM 35.7714 -77.8653 33° Northeast 488 562 35,000  Level Washington Center
08:54AM 35.8878 -77.7764 32° Northeast 488 562 35,000  Level Washington Center
08:55AM 36.0000 -77.6844 34° Northeast 488 562 35,000  Level Washington Center
08:56AM 36.1103 -77.5844 36° Northeast 488 562 35,000  Level Washington Center
08:57AM 36.2183 -77.4817 37° Northeast 488 562 35,000 -60 Level Washington Center
08:58AM 36.3264 -77.3786 38° Northeast 488 562 34,900  Descending Washington Center
08:59AM 36.4383 -77.2728 37° Northeast 494 568 35,000  Climbing Washington Center
09:00AM 36.5506 -77.1667 37° Northeast 499 574 35,000  Level Washington Center
09:01AM 36.6625 -77.0625 37° Northeast 504 580 35,000  Level Washington Center
09:02AM 36.7806 -76.9508 37° Northeast 509 586 35,000  Level Washington Center
09:03AM 36.8964 -76.8464 36° Northeast 509 586 35,000  Level Washington Center
09:04AM 37.0122 -76.7442 35° Northeast 509 586 35,000  Level Washington Center
09:05AM 37.1278 -76.6392 36° Northeast 509 586 35,000  Level Washington Center
09:06AM 37.2331 -76.5414 36° Northeast 509 586 35,000  Level Washington Center
09:07AM 37.3506 -76.4358 36° Northeast 509 586 35,000  Level Washington Center
09:08AM 37.4681 -76.3272 36° Northeast 509 586 35,000  Level Washington Center
09:09AM 37.5856 -76.2181 36° Northeast 514 592 35,000  Level Washington Center
09:10AM 37.7194 -76.1036 34° Northeast 519 597 35,000  Level Washington Center
09:11AM 37.8200 -76.0019 39° Northeast 519 597 35,000  Level Washington Center
09:12AM 37.9392 -75.8892 37° Northeast 524 603 35,000  Level Washington Center
09:13AM 38.0561 -75.7789 37° Northeast 524 603 35,000  Level Washington Center
09:14AM 38.1836 -75.6817 31° Northeast 524 603 35,000  Level Washington Center
09:15AM 38.3086 -75.5892 30° Northeast 524 603 35,000 -60 Level Washington Center
09:16AM 38.4378 -75.4936 30° Northeast 524 603 34,900  Descending Washington Center
09:17AM 38.5650 -75.3978 30° Northeast 529 609 35,000  Climbing Washington Center
09:18AM 38.6961 -75.2992 30° Northeast 534 615 35,000  Level Washington Center
09:19AM 38.8250 -75.2025 30° Northeast 534 615 35,000  Level Washington Center
09:20AM 38.9539 -75.1031 31° Northeast 534 615 35,000  Level Washington Center
09:21AM 39.0847 -75.0033 31° Northeast 534 615 35,000  Level Washington Center
09:22AM 39.2156 -74.9006 31° Northeast 540 621 35,000  Level Washington Center
09:23AM 39.3461 -74.7972 31° Northeast 540 621 35,000  Level Washington Center
09:24AM 39.4789 -74.6936 31° Northeast 545 627 35,000  Level Washington Center
09:26AM 39.8108 -74.4353 31° Northeast 560 644 35,000  Level New York Center
09:27AM 39.9489 -74.3478 26° Northeast 553 636 35,000 -120 Level New York Center
09:28AM 40.0992 -74.3392 North 536 617 34,800 -360 Descending New York Center
09:29AM 40.2556 -74.3392 360° North 541 623 34,400 -660 Descending New York Center
09:30AM 40.4119 -74.3392 360° North 547 629 33,500 -1,200 Descending New York Center
09:31AM 40.5556 -74.2728 19° North 547 629 32,000 -1,620 Descending New York Center
09:32AM 40.6472 -74.1244 51° Northeast 511 588 30,400 -1,740 Descending New York Center
09:34AM 40.7739 -73.7144 68° East 492 566 26,200 -1,800 Descending Boston Center
09:35AM 40.8236 -73.5481 68° East 492 566 24,500 -1,140 Descending Boston Center
09:36AM 40.8853 -73.4008 61° Northeast 477 549 24,000 -300 Descending Boston Center
09:37AM 40.9678 -73.2703 50° Northeast 461 531 23,900 -300 Descending Boston Center
09:38AM 41.0394 -73.1281 56° Northeast 461 531 23,400 -480 Descending Boston Center
09:39AM 41.1069 -72.9856 58° Northeast 461 531 23,000 -240 Descending Boston Center
09:40AM 41.1742 -72.8428 58° Northeast 456 525 23,000  Level Boston Center
09:41AM 41.2433 -72.6994 57° Northeast 456 525 23,000  Level Boston Center
09:42AM 41.3083 -72.5700 56° Northeast 461 531 23,000 -180 Level Boston Center
09:43AM 41.3750 -72.4208 59° Northeast 461 531 22,700 -720 Descending Boston Center
09:44AM 41.4333 -72.2628 64° Northeast 440 506 21,600 -1,020 Descending Boston Center
09:45AM 41.4892 -72.1131 63° Northeast 434 499 20,700 -960 Descending Boston Center
09:46AM 41.5428 -71.9686 64° Northeast 429 494 19,700 -1,200 Descending Boston Center
09:47AM 41.5983 -71.8294 62° Northeast 424 488 18,300 -1,500 Descending Boston Center
09:48AM 41.6478 -71.6900 65° Northeast 424 488 16,700 -1,620 Descending Boston Center
09:49AM 41.6989 -71.5531 63° Northeast 417 480 15,100 -1,440 Descending Boston Center
09:50AM 41.7436 -71.4356 63° Northeast 397 457 13,900 -1,500 Descending Boston Center
09:52AM 41.8044 -71.2619 65° Northeast 392 451 11,900 -1,320 Descending Boston Center
09:53AM 41.8489 -71.1414 64° Northeast 365 420 11,000 -720 Descending Boston Center
09:53AM 41.8833 -71.0667 58° Northeast 347 399 10,800 -660 Descending KA90
09:54AM 41.9333 -70.9500 60° Northeast 344 396 10,000 -660 Descending KA90
09:55AM 41.9667 -70.8500 66° East 316 364 9,500 -540 Descending KA90
09:56AM 41.9847 -70.8342 33° Northeast 329 379 9,300 -600 Descending Boston Center
09:57AM 42.0333 -70.7350 57° Northeast 316 364 8,700 -600 Descending Boston Center
09:58AM 42.0903 -70.6494 48° Northeast 311 358 8,100 -780 Descending Boston Center
09:59AM 42.1667 -70.5997 26° Northeast 299 344 7,200 -1,020 Descending Boston Center
10:00AM 42.2478 -70.5889 North 291 335 6,100 -1,140 Descending Boston Center
10:01AM 42.3253 -70.6119 348° North 277 319 5,000 -600 Descending Boston Center
10:02AM 42.3986 -70.6322 348° North 271 312 4,900 -60 Descending Boston Center
10:03AM 42.4633 -70.6531 347° North 250 288 4,900 -240 Level Boston Center
10:04AM 42.4875 -70.7283 294° West 215 247 4,500 -360 Descending Boston Center
10:05AM 42.5667 -70.8000 326° Northwest 233 268 3,900 -540 Descending KA90
10:06AM 42.5833 -70.8500 294° West 202 232 3,000 -480 Descending KA90
10:07AM 42.5500 -70.9167 236° Southwest 175 201 3,000 -60 Level KA90
10:08AM 42.5167 -70.9333 200° South 170 196 2,900 -120 Descending KA90